sensor_id;sensor_type;location;lat;lon;timestamp;P1;durP1;ratioP1;P2;durP2;ratioP2
71947;SDS011;59820;55.076;38.766;2022-08-03T00:01:17;8.90;;;5.93;;
71947;SDS011;59820;55.076;38.766;2022-08-03T00:03:44;10.17;;;6.13;;
71947;SDS011;59820;55.076;38.766;2022-08-03T00:06:10;10.68;;;6.22;;
71947;SDS011;59820;55.076;38.766;2022-08-03T00:08:36;9.40;;;5.72;;
71947;SDS011;59820;55.076;38.766;2022-08-03T00:11:02;12.00;;;6.70;;
71947;SDS011;59820;55.076;38.766;2022-08-03T00:13:28;9.30;;;5.70;;
71947;SDS011;59820;55.076;38.766;2022-08-03T00:15:56;11.30;;;5.95;;
71947;SDS011;59820;55.076;38.766;2022-08-03T00:18:22;8.93;;;6.00;;
71947;SDS011;59820;55.076;38.766;2022-08-03T00:20:48;11.18;;;5.90;;
71947;SDS011;59820;55.076;38.766;2022-08-03T00:23:14;9.85;;;6.00;;
71947;SDS011;59820;55.076;38.766;2022-08-03T00:25:40;10.10;;;6.03;;
71947;SDS011;59820;55.076;38.766;2022-08-03T00:28:07;9.68;;;6.15;;
71947;SDS011;59820;55.076;38.766;2022-08-03T00:30:34;9.32;;;6.70;;
71947;SDS011;59820;55.076;38.766;2022-08-03T00:33:00;13.07;;;6.07;;
71947;SDS011;59820;55.076;38.766;2022-08-03T00:35:27;9.32;;;5.90;;
71947;SDS011;59820;55.076;38.766;2022-08-03T00:37:53;11.03;;;6.13;;
71947;SDS011;59820;55.076;38.766;2022-08-03T00:40:19;10.73;;;6.25;;
71947;SDS011;59820;55.076;38.766;2022-08-03T00:45:19;10.52;;;6.80;;
71947;SDS011;59820;55.076;38.766;2022-08-03T00:47:46;9.60;;;6.50;;
71947;SDS011;59820;55.076;38.766;2022-08-03T00:50:15;9.47;;;6.23;;
71947;SDS011;59820;55.076;38.766;2022-08-03T00:52:42;9.02;;;6.25;;
71947;SDS011;59820;55.076;38.766;2022-08-03T00:55:08;10.27;;;6.65;;
71947;SDS011;59820;55.076;38.766;2022-08-03T00:57:38;10.02;;;6.55;;
71947;SDS011;59820;55.076;38.766;2022-08-03T01:00:05;10.60;;;6.53;;
71947;SDS011;59820;55.076;38.766;2022-08-03T01:02:33;11.17;;;6.70;;
71947;SDS011;59820;55.076;38.766;2022-08-03T01:04:58;12.07;;;6.60;;
71947;SDS011;59820;55.076;38.766;2022-08-03T01:07:26;10.68;;;6.53;;
71947;SDS011;59820;55.076;38.766;2022-08-03T01:10:09;9.40;;;5.97;;
71947;SDS011;59820;55.076;38.766;2022-08-03T01:15:40;9.48;;;6.45;;
71947;SDS011;59820;55.076;38.766;2022-08-03T01:18:37;10.20;;;6.70;;
71947;SDS011;59820;55.076;38.766;2022-08-03T01:21:30;11.73;;;6.65;;
71947;SDS011;59820;55.076;38.766;2022-08-03T01:24:04;10.43;;;6.73;;
71947;SDS011;59820;55.076;38.766;2022-08-03T01:29:51;10.05;;;6.40;;
71947;SDS011;59820;55.076;38.766;2022-08-03T01:32:23;11.15;;;6.55;;
71947;SDS011;59820;55.076;38.766;2022-08-03T01:35:00;10.50;;;6.53;;
71947;SDS011;59820;55.076;38.766;2022-08-03T01:37:43;12.30;;;6.70;;
71947;SDS011;59820;55.076;38.766;2022-08-03T01:40:14;9.95;;;6.65;;
71947;SDS011;59820;55.076;38.766;2022-08-03T01:42:42;10.85;;;6.47;;
71947;SDS011;59820;55.076;38.766;2022-08-03T01:45:10;9.45;;;6.10;;
71947;SDS011;59820;55.076;38.766;2022-08-03T01:47:39;11.13;;;6.72;;
71947;SDS011;59820;55.076;38.766;2022-08-03T01:50:07;10.77;;;6.93;;
71947;SDS011;59820;55.076;38.766;2022-08-03T01:52:36;8.63;;;6.55;;
71947;SDS011;59820;55.076;38.766;2022-08-03T01:55:05;11.32;;;6.43;;
71947;SDS011;59820;55.076;38.766;2022-08-03T01:57:32;11.07;;;6.35;;
71947;SDS011;59820;55.076;38.766;2022-08-03T02:00:01;10.85;;;6.45;;
71947;SDS011;59820;55.076;38.766;2022-08-03T02:02:37;10.23;;;6.60;;
71947;SDS011;59820;55.076;38.766;2022-08-03T02:05:06;9.85;;;6.63;;
71947;SDS011;59820;55.076;38.766;2022-08-03T02:07:34;10.48;;;6.45;;
71947;SDS011;59820;55.076;38.766;2022-08-03T02:10:03;11.77;;;6.50;;
71947;SDS011;59820;55.076;38.766;2022-08-03T02:12:31;11.27;;;6.25;;
71947;SDS011;59820;55.076;38.766;2022-08-03T02:15:21;10.03;;;6.13;;
71947;SDS011;59820;55.076;38.766;2022-08-03T02:17:49;11.32;;;6.50;;
71947;SDS011;59820;55.076;38.766;2022-08-03T02:20:15;13.48;;;6.50;;
71947;SDS011;59820;55.076;38.766;2022-08-03T02:22:42;10.60;;;6.68;;
71947;SDS011;59820;55.076;38.766;2022-08-03T02:25:12;9.48;;;6.35;;
71947;SDS011;59820;55.076;38.766;2022-08-03T02:27:42;10.83;;;6.37;;
71947;SDS011;59820;55.076;38.766;2022-08-03T02:30:16;10.65;;;6.25;;
71947;SDS011;59820;55.076;38.766;2022-08-03T02:32:48;10.63;;;6.70;;
71947;SDS011;59820;55.076;38.766;2022-08-03T02:35:19;10.00;;;6.40;;
71947;SDS011;59820;55.076;38.766;2022-08-03T02:37:52;10.98;;;6.50;;
71947;SDS011;59820;55.076;38.766;2022-08-03T02:40:23;11.00;;;6.60;;
71947;SDS011;59820;55.076;38.766;2022-08-03T02:42:56;10.63;;;6.15;;
71947;SDS011;59820;55.076;38.766;2022-08-03T02:45:24;9.25;;;6.60;;
71947;SDS011;59820;55.076;38.766;2022-08-03T02:47:54;12.90;;;7.07;;
71947;SDS011;59820;55.076;38.766;2022-08-03T02:50:25;10.52;;;6.60;;
71947;SDS011;59820;55.076;38.766;2022-08-03T02:52:52;8.97;;;6.07;;
71947;SDS011;59820;55.076;38.766;2022-08-03T02:55:21;9.35;;;6.63;;
71947;SDS011;59820;55.076;38.766;2022-08-03T02:57:50;11.90;;;6.80;;
71947;SDS011;59820;55.076;38.766;2022-08-03T03:00:20;11.93;;;6.63;;
71947;SDS011;59820;55.076;38.766;2022-08-03T03:02:57;10.23;;;6.50;;
71947;SDS011;59820;55.076;38.766;2022-08-03T03:05:25;10.03;;;6.40;;
71947;SDS011;59820;55.076;38.766;2022-08-03T03:07:52;11.60;;;6.50;;
71947;SDS011;59820;55.076;38.766;2022-08-03T03:10:23;11.35;;;7.03;;
71947;SDS011;59820;55.076;38.766;2022-08-03T03:12:52;11.48;;;6.60;;
71947;SDS011;59820;55.076;38.766;2022-08-03T03:15:26;11.52;;;6.60;;
71947;SDS011;59820;55.076;38.766;2022-08-03T03:17:57;11.10;;;6.53;;
71947;SDS011;59820;55.076;38.766;2022-08-03T03:20:25;15.40;;;7.03;;
71947;SDS011;59820;55.076;38.766;2022-08-03T03:22:53;13.45;;;6.75;;
71947;SDS011;59820;55.076;38.766;2022-08-03T03:25:20;9.50;;;6.30;;
71947;SDS011;59820;55.076;38.766;2022-08-03T03:27:49;11.90;;;7.15;;
71947;SDS011;59820;55.076;38.766;2022-08-03T03:30:16;10.33;;;6.63;;
71947;SDS011;59820;55.076;38.766;2022-08-03T03:32:42;12.65;;;6.97;;
71947;SDS011;59820;55.076;38.766;2022-08-03T03:35:10;10.40;;;6.65;;
71947;SDS011;59820;55.076;38.766;2022-08-03T03:37:39;10.88;;;7.18;;
71947;SDS011;59820;55.076;38.766;2022-08-03T03:40:05;11.85;;;7.50;;
71947;SDS011;59820;55.076;38.766;2022-08-03T03:42:33;12.20;;;7.00;;
71947;SDS011;59820;55.076;38.766;2022-08-03T03:45:05;11.38;;;7.55;;
71947;SDS011;59820;55.076;38.766;2022-08-03T03:47:32;13.55;;;7.32;;
71947;SDS011;59820;55.076;38.766;2022-08-03T03:50:00;11.15;;;6.70;;
71947;SDS011;59820;55.076;38.766;2022-08-03T03:52:30;11.65;;;6.60;;
71947;SDS011;59820;55.076;38.766;2022-08-03T03:54:56;12.20;;;6.50;;
71947;SDS011;59820;55.076;38.766;2022-08-03T03:57:23;14.30;;;7.00;;
71947;SDS011;59820;55.076;38.766;2022-08-03T03:59:49;11.68;;;6.88;;
71947;SDS011;59820;55.076;38.766;2022-08-03T04:02:15;12.05;;;6.75;;
71947;SDS011;59820;55.076;38.766;2022-08-03T04:04:41;11.85;;;7.72;;
71947;SDS011;59820;55.076;38.766;2022-08-03T04:07:26;12.10;;;7.00;;
71947;SDS011;59820;55.076;38.766;2022-08-03T04:10:12;14.15;;;7.15;;
71947;SDS011;59820;55.076;38.766;2022-08-03T04:13:02;11.10;;;7.30;;
71947;SDS011;59820;55.076;38.766;2022-08-03T04:15:32;13.15;;;6.80;;
71947;SDS011;59820;55.076;38.766;2022-08-03T04:18:02;12.90;;;6.55;;
71947;SDS011;59820;55.076;38.766;2022-08-03T04:20:39;13.67;;;7.13;;
71947;SDS011;59820;55.076;38.766;2022-08-03T04:23:11;13.20;;;7.30;;
71947;SDS011;59820;55.076;38.766;2022-08-03T04:25:38;12.43;;;7.43;;
71947;SDS011;59820;55.076;38.766;2022-08-03T04:28:07;13.88;;;7.10;;
71947;SDS011;59820;55.076;38.766;2022-08-03T04:30:37;12.07;;;6.85;;
71947;SDS011;59820;55.076;38.766;2022-08-03T04:33:14;14.20;;;7.40;;
71947;SDS011;59820;55.076;38.766;2022-08-03T04:35:43;12.88;;;7.13;;
71947;SDS011;59820;55.076;38.766;2022-08-03T04:38:14;14.57;;;7.90;;
71947;SDS011;59820;55.076;38.766;2022-08-03T04:40:44;13.77;;;7.13;;
71947;SDS011;59820;55.076;38.766;2022-08-03T04:43:12;12.90;;;7.07;;
71947;SDS011;59820;55.076;38.766;2022-08-03T04:45:41;16.83;;;6.90;;
71947;SDS011;59820;55.076;38.766;2022-08-03T04:48:08;12.07;;;6.88;;
71947;SDS011;59820;55.076;38.766;2022-08-03T04:50:35;14.45;;;6.93;;
71947;SDS011;59820;55.076;38.766;2022-08-03T04:53:07;13.98;;;6.75;;
71947;SDS011;59820;55.076;38.766;2022-08-03T04:55:34;11.82;;;6.97;;
71947;SDS011;59820;55.076;38.766;2022-08-03T04:58:01;11.47;;;6.83;;
71947;SDS011;59820;55.076;38.766;2022-08-03T05:00:30;13.40;;;7.10;;
71947;SDS011;59820;55.076;38.766;2022-08-03T05:02:57;13.95;;;7.13;;
71947;SDS011;59820;55.076;38.766;2022-08-03T05:05:34;12.68;;;7.03;;
71947;SDS011;59820;55.076;38.766;2022-08-03T05:08:11;14.48;;;6.97;;
71947;SDS011;59820;55.076;38.766;2022-08-03T05:10:37;13.00;;;7.13;;
71947;SDS011;59820;55.076;38.766;2022-08-03T05:13:03;13.68;;;6.93;;
71947;SDS011;59820;55.076;38.766;2022-08-03T05:15:30;14.80;;;6.93;;
71947;SDS011;59820;55.076;38.766;2022-08-03T05:17:57;11.10;;;6.88;;
71947;SDS011;59820;55.076;38.766;2022-08-03T05:20:23;13.98;;;7.43;;
71947;SDS011;59820;55.076;38.766;2022-08-03T05:22:49;13.60;;;7.57;;
71947;SDS011;59820;55.076;38.766;2022-08-03T05:25:23;12.93;;;7.30;;
71947;SDS011;59820;55.076;38.766;2022-08-03T05:27:57;12.52;;;7.70;;
71947;SDS011;59820;55.076;38.766;2022-08-03T05:30:24;15.15;;;7.50;;
71947;SDS011;59820;55.076;38.766;2022-08-03T05:32:50;15.52;;;8.00;;
71947;SDS011;59820;55.076;38.766;2022-08-03T05:35:19;28.27;;;9.97;;
71947;SDS011;59820;55.076;38.766;2022-08-03T05:37:48;22.45;;;8.85;;
71947;SDS011;59820;55.076;38.766;2022-08-03T05:40:15;16.88;;;8.43;;
71947;SDS011;59820;55.076;38.766;2022-08-03T05:42:41;16.00;;;8.65;;
71947;SDS011;59820;55.076;38.766;2022-08-03T05:45:13;14.98;;;8.10;;
71947;SDS011;59820;55.076;38.766;2022-08-03T05:47:47;14.77;;;8.73;;
71947;SDS011;59820;55.076;38.766;2022-08-03T05:50:14;16.20;;;7.82;;
71947;SDS011;59820;55.076;38.766;2022-08-03T05:52:40;17.25;;;8.60;;
71947;SDS011;59820;55.076;38.766;2022-08-03T05:55:08;13.80;;;8.20;;
71947;SDS011;59820;55.076;38.766;2022-08-03T05:57:36;16.50;;;8.53;;
71947;SDS011;59820;55.076;38.766;2022-08-03T06:00:04;16.63;;;9.20;;
71947;SDS011;59820;55.076;38.766;2022-08-03T06:02:37;14.95;;;8.80;;
71947;SDS011;59820;55.076;38.766;2022-08-03T06:05:04;18.63;;;9.20;;
71947;SDS011;59820;55.076;38.766;2022-08-03T06:07:30;18.95;;;9.82;;
71947;SDS011;59820;55.076;38.766;2022-08-03T06:09:58;16.37;;;9.40;;
71947;SDS011;59820;55.076;38.766;2022-08-03T06:12:26;17.25;;;9.65;;
71947;SDS011;59820;55.076;38.766;2022-08-03T06:14:52;21.17;;;12.18;;
71947;SDS011;59820;55.076;38.766;2022-08-03T06:17:18;15.00;;;9.85;;
71947;SDS011;59820;55.076;38.766;2022-08-03T06:19:44;19.30;;;9.47;;
71947;SDS011;59820;55.076;38.766;2022-08-03T06:22:10;19.83;;;9.75;;
71947;SDS011;59820;55.076;38.766;2022-08-03T06:24:37;17.65;;;9.75;;
71947;SDS011;59820;55.076;38.766;2022-08-03T06:27:03;13.65;;;8.88;;
71947;SDS011;59820;55.076;38.766;2022-08-03T06:29:29;15.73;;;8.00;;
71947;SDS011;59820;55.076;38.766;2022-08-03T06:31:55;14.88;;;8.45;;
71947;SDS011;59820;55.076;38.766;2022-08-03T06:34:21;15.13;;;8.05;;
71947;SDS011;59820;55.076;38.766;2022-08-03T06:36:47;14.18;;;8.50;;
71947;SDS011;59820;55.076;38.766;2022-08-03T06:39:16;13.35;;;7.78;;
71947;SDS011;59820;55.076;38.766;2022-08-03T06:41:45;12.82;;;7.25;;
71947;SDS011;59820;55.076;38.766;2022-08-03T06:44:11;11.73;;;7.90;;
71947;SDS011;59820;55.076;38.766;2022-08-03T06:46:37;25.60;;;8.40;;
71947;SDS011;59820;55.076;38.766;2022-08-03T06:49:03;14.00;;;8.23;;
71947;SDS011;59820;55.076;38.766;2022-08-03T06:51:29;14.25;;;8.45;;
71947;SDS011;59820;55.076;38.766;2022-08-03T06:53:56;14.53;;;8.10;;
71947;SDS011;59820;55.076;38.766;2022-08-03T06:56:22;13.00;;;8.18;;
71947;SDS011;59820;55.076;38.766;2022-08-03T06:58:48;12.93;;;7.93;;
71947;SDS011;59820;55.076;38.766;2022-08-03T07:01:14;12.45;;;7.85;;
71947;SDS011;59820;55.076;38.766;2022-08-03T07:03:40;11.10;;;7.50;;
71947;SDS011;59820;55.076;38.766;2022-08-03T07:06:05;12.02;;;7.93;;
71947;SDS011;59820;55.076;38.766;2022-08-03T07:08:32;12.52;;;8.32;;
71947;SDS011;59820;55.076;38.766;2022-08-03T07:10:58;15.57;;;7.97;;
71947;SDS011;59820;55.076;38.766;2022-08-03T07:13:24;13.57;;;8.10;;
71947;SDS011;59820;55.076;38.766;2022-08-03T07:15:50;17.65;;;8.57;;
71947;SDS011;59820;55.076;38.766;2022-08-03T07:18:16;14.90;;;8.10;;
71947;SDS011;59820;55.076;38.766;2022-08-03T07:20:42;13.77;;;7.85;;
71947;SDS011;59820;55.076;38.766;2022-08-03T07:23:09;21.98;;;9.65;;
71947;SDS011;59820;55.076;38.766;2022-08-03T07:25:35;15.18;;;9.05;;
71947;SDS011;59820;55.076;38.766;2022-08-03T07:28:01;12.33;;;8.40;;
71947;SDS011;59820;55.076;38.766;2022-08-03T07:30:27;14.48;;;8.25;;
71947;SDS011;59820;55.076;38.766;2022-08-03T07:32:53;15.75;;;8.05;;
71947;SDS011;59820;55.076;38.766;2022-08-03T07:35:19;17.35;;;7.80;;
71947;SDS011;59820;55.076;38.766;2022-08-03T07:37:47;11.93;;;7.60;;
71947;SDS011;59820;55.076;38.766;2022-08-03T07:40:16;15.25;;;8.23;;
71947;SDS011;59820;55.076;38.766;2022-08-03T07:42:42;10.73;;;6.95;;
71947;SDS011;59820;55.076;38.766;2022-08-03T07:45:08;10.07;;;6.82;;
71947;SDS011;59820;55.076;38.766;2022-08-03T07:47:34;16.07;;;7.90;;
71947;SDS011;59820;55.076;38.766;2022-08-03T07:50:00;17.33;;;8.15;;
71947;SDS011;59820;55.076;38.766;2022-08-03T07:55:23;13.85;;;7.43;;
71947;SDS011;59820;55.076;38.766;2022-08-03T08:00:26;11.25;;;6.90;;
71947;SDS011;59820;55.076;38.766;2022-08-03T08:02:53;15.15;;;7.80;;
71947;SDS011;59820;55.076;38.766;2022-08-03T08:05:19;12.02;;;7.22;;
71947;SDS011;59820;55.076;38.766;2022-08-03T08:07:45;11.77;;;6.72;;
71947;SDS011;59820;55.076;38.766;2022-08-03T08:10:11;14.63;;;7.22;;
71947;SDS011;59820;55.076;38.766;2022-08-03T08:12:37;15.68;;;7.15;;
71947;SDS011;59820;55.076;38.766;2022-08-03T08:15:04;15.07;;;8.07;;
71947;SDS011;59820;55.076;38.766;2022-08-03T08:17:42;16.10;;;7.80;;
71947;SDS011;59820;55.076;38.766;2022-08-03T08:20:18;11.30;;;6.60;;
71947;SDS011;59820;55.076;38.766;2022-08-03T08:22:48;12.18;;;7.13;;
71947;SDS011;59820;55.076;38.766;2022-08-03T08:25:14;13.43;;;7.00;;
71947;SDS011;59820;55.076;38.766;2022-08-03T08:27:45;16.50;;;6.90;;
71947;SDS011;59820;55.076;38.766;2022-08-03T08:30:13;12.40;;;6.35;;
71947;SDS011;59820;55.076;38.766;2022-08-03T08:32:41;11.33;;;5.97;;
71947;SDS011;59820;55.076;38.766;2022-08-03T08:35:07;12.43;;;6.22;;
71947;SDS011;59820;55.076;38.766;2022-08-03T08:37:33;13.57;;;5.85;;
71947;SDS011;59820;55.076;38.766;2022-08-03T08:40:01;15.15;;;6.28;;
71947;SDS011;59820;55.076;38.766;2022-08-03T08:42:29;10.00;;;5.65;;
71947;SDS011;59820;55.076;38.766;2022-08-03T08:44:56;8.52;;;5.30;;
71947;SDS011;59820;55.076;38.766;2022-08-03T08:47:23;8.23;;;5.50;;
71947;SDS011;59820;55.076;38.766;2022-08-03T08:49:51;9.68;;;5.18;;
71947;SDS011;59820;55.076;38.766;2022-08-03T08:52:26;7.70;;;4.53;;
71947;SDS011;59820;55.076;38.766;2022-08-03T08:54:55;9.13;;;4.65;;
71947;SDS011;59820;55.076;38.766;2022-08-03T08:57:30;10.20;;;6.05;;
71947;SDS011;59820;55.076;38.766;2022-08-03T09:00:04;8.93;;;4.60;;
71947;SDS011;59820;55.076;38.766;2022-08-03T09:02:37;9.55;;;4.80;;
71947;SDS011;59820;55.076;38.766;2022-08-03T09:05:04;10.70;;;5.18;;
71947;SDS011;59820;55.076;38.766;2022-08-03T09:07:30;13.75;;;6.60;;
71947;SDS011;59820;55.076;38.766;2022-08-03T09:09:57;12.98;;;5.30;;
71947;SDS011;59820;55.076;38.766;2022-08-03T09:12:25;12.63;;;5.00;;
71947;SDS011;59820;55.076;38.766;2022-08-03T09:14:51;11.30;;;4.88;;
71947;SDS011;59820;55.076;38.766;2022-08-03T09:17:17;7.45;;;4.75;;
71947;SDS011;59820;55.076;38.766;2022-08-03T09:20:21;7.45;;;4.70;;
71947;SDS011;59820;55.076;38.766;2022-08-03T09:25:31;7.55;;;4.57;;
71947;SDS011;59820;55.076;38.766;2022-08-03T09:30:39;7.95;;;4.88;;
71947;SDS011;59820;55.076;38.766;2022-08-03T09:33:07;9.25;;;4.78;;
71947;SDS011;59820;55.076;38.766;2022-08-03T09:35:41;9.98;;;4.85;;
71947;SDS011;59820;55.076;38.766;2022-08-03T09:38:16;9.60;;;5.00;;
71947;SDS011;59820;55.076;38.766;2022-08-03T09:40:49;8.48;;;5.00;;
71947;SDS011;59820;55.076;38.766;2022-08-03T09:43:16;11.15;;;4.88;;
71947;SDS011;59820;55.076;38.766;2022-08-03T09:45:43;8.45;;;5.03;;
71947;SDS011;59820;55.076;38.766;2022-08-03T09:48:22;8.02;;;5.10;;
71947;SDS011;59820;55.076;38.766;2022-08-03T09:50:54;8.60;;;4.40;;
71947;SDS011;59820;55.076;38.766;2022-08-03T09:53:24;6.90;;;4.82;;
71947;SDS011;59820;55.076;38.766;2022-08-03T09:55:55;7.60;;;4.68;;
71947;SDS011;59820;55.076;38.766;2022-08-03T09:58:22;6.55;;;4.70;;
71947;SDS011;59820;55.076;38.766;2022-08-03T10:03:21;8.70;;;5.15;;
71947;SDS011;59820;55.076;38.766;2022-08-03T10:05:48;7.93;;;5.32;;
71947;SDS011;59820;55.076;38.766;2022-08-03T10:08:14;8.30;;;5.40;;
71947;SDS011;59820;55.076;38.766;2022-08-03T10:10:42;8.82;;;5.13;;
71947;SDS011;59820;55.076;38.766;2022-08-03T10:13:10;11.57;;;4.97;;
71947;SDS011;59820;55.076;38.766;2022-08-03T10:15:39;9.93;;;5.45;;
71947;SDS011;59820;55.076;38.766;2022-08-03T10:18:06;8.55;;;5.22;;
71947;SDS011;59820;55.076;38.766;2022-08-03T10:20:36;11.05;;;5.60;;
71947;SDS011;59820;55.076;38.766;2022-08-03T10:23:05;9.32;;;5.40;;
71947;SDS011;59820;55.076;38.766;2022-08-03T10:25:32;7.88;;;5.18;;
71947;SDS011;59820;55.076;38.766;2022-08-03T10:28:01;10.63;;;5.57;;
71947;SDS011;59820;55.076;38.766;2022-08-03T10:30:33;7.47;;;5.38;;
71947;SDS011;59820;55.076;38.766;2022-08-03T10:33:04;7.72;;;5.45;;
71947;SDS011;59820;55.076;38.766;2022-08-03T10:35:39;8.07;;;4.80;;
71947;SDS011;59820;55.076;38.766;2022-08-03T10:38:09;8.23;;;4.60;;
71947;SDS011;59820;55.076;38.766;2022-08-03T10:40:41;8.23;;;5.10;;
71947;SDS011;59820;55.076;38.766;2022-08-03T10:43:11;9.35;;;5.25;;
71947;SDS011;59820;55.076;38.766;2022-08-03T10:45:47;7.70;;;5.03;;
71947;SDS011;59820;55.076;38.766;2022-08-03T10:48:17;8.52;;;5.63;;
71947;SDS011;59820;55.076;38.766;2022-08-03T10:50:44;12.18;;;5.47;;
71947;SDS011;59820;55.076;38.766;2022-08-03T10:53:11;8.70;;;5.28;;
71947;SDS011;59820;55.076;38.766;2022-08-03T10:55:38;10.13;;;5.63;;
71947;SDS011;59820;55.076;38.766;2022-08-03T11:01:10;8.70;;;5.45;;
71947;SDS011;59820;55.076;38.766;2022-08-03T11:04:12;12.15;;;5.30;;
71947;SDS011;59820;55.076;38.766;2022-08-03T11:06:23;8.95;;;4.60;;
71947;SDS011;59820;55.076;38.766;2022-08-03T11:11:39;12.23;;;5.07;;
71947;SDS011;59820;55.076;38.766;2022-08-03T11:14:11;12.40;;;5.90;;
71947;SDS011;59820;55.076;38.766;2022-08-03T11:16:40;11.93;;;4.90;;
71947;SDS011;59820;55.076;38.766;2022-08-03T11:19:13;12.32;;;6.90;;
71947;SDS011;59820;55.076;38.766;2022-08-03T11:35:12;12.80;;;5.63;;
71947;SDS011;59820;55.076;38.766;2022-08-03T11:43:10;9.30;;;5.40;;
71947;SDS011;59820;55.076;38.766;2022-08-03T11:46:04;8.13;;;4.93;;
71947;SDS011;59820;55.076;38.766;2022-08-03T11:48:40;9.43;;;5.63;;
71947;SDS011;59820;55.076;38.766;2022-08-03T11:51:18;9.00;;;5.28;;
71947;SDS011;59820;55.076;38.766;2022-08-03T11:53:45;14.15;;;5.35;;
71947;SDS011;59820;55.076;38.766;2022-08-03T11:56:14;9.23;;;5.20;;
71947;SDS011;59820;55.076;38.766;2022-08-03T11:58:46;11.20;;;5.43;;
71947;SDS011;59820;55.076;38.766;2022-08-03T12:01:13;9.38;;;5.00;;
71947;SDS011;59820;55.076;38.766;2022-08-03T12:03:42;15.77;;;6.13;;
71947;SDS011;59820;55.076;38.766;2022-08-03T12:12:29;10.93;;;5.97;;
71947;SDS011;59820;55.076;38.766;2022-08-03T12:14:55;6.88;;;5.25;;
71947;SDS011;59820;55.076;38.766;2022-08-03T12:17:22;8.50;;;5.82;;
71947;SDS011;59820;55.076;38.766;2022-08-03T12:19:52;12.88;;;6.35;;
71947;SDS011;59820;55.076;38.766;2022-08-03T12:22:29;11.50;;;6.27;;
71947;SDS011;59820;55.076;38.766;2022-08-03T12:24:59;11.98;;;6.47;;
71947;SDS011;59820;55.076;38.766;2022-08-03T12:31:38;11.95;;;6.00;;
71947;SDS011;59820;55.076;38.766;2022-08-03T12:34:04;8.93;;;5.87;;
71947;SDS011;59820;55.076;38.766;2022-08-03T12:39:54;15.07;;;7.22;;
71947;SDS011;59820;55.076;38.766;2022-08-03T12:56:16;8.60;;;5.88;;
71947;SDS011;59820;55.076;38.766;2022-08-03T12:58:44;7.03;;;5.07;;
71947;SDS011;59820;55.076;38.766;2022-08-03T13:01:09;7.67;;;5.33;;
71947;SDS011;59820;55.076;38.766;2022-08-03T13:03:40;8.65;;;6.10;;
71947;SDS011;59820;55.076;38.766;2022-08-03T13:12:44;7.18;;;5.78;;
71947;SDS011;59820;55.076;38.766;2022-08-03T13:15:13;14.05;;;7.05;;
71947;SDS011;59820;55.076;38.766;2022-08-03T13:24:39;11.10;;;6.00;;
71947;SDS011;59820;55.076;38.766;2022-08-03T13:27:05;8.35;;;6.47;;
71947;SDS011;59820;55.076;38.766;2022-08-03T13:29:35;7.50;;;5.82;;
71947;SDS011;59820;55.076;38.766;2022-08-03T13:32:01;9.05;;;5.82;;
71947;SDS011;59820;55.076;38.766;2022-08-03T13:34:29;11.73;;;7.95;;
71947;SDS011;59820;55.076;38.766;2022-08-03T13:37:04;9.50;;;6.17;;
71947;SDS011;59820;55.076;38.766;2022-08-03T13:39:29;8.55;;;4.80;;
71947;SDS011;59820;55.076;38.766;2022-08-03T13:41:55;12.40;;;5.97;;
71947;SDS011;59820;55.076;38.766;2022-08-03T13:44:22;9.38;;;4.88;;
71947;SDS011;59820;55.076;38.766;2022-08-03T13:46:49;11.70;;;5.20;;
71947;SDS011;59820;55.076;38.766;2022-08-03T13:49:14;9.10;;;4.90;;
71947;SDS011;59820;55.076;38.766;2022-08-03T13:51:40;8.73;;;5.20;;
71947;SDS011;59820;55.076;38.766;2022-08-03T13:54:06;7.20;;;5.10;;
71947;SDS011;59820;55.076;38.766;2022-08-03T13:56:35;9.00;;;5.77;;
71947;SDS011;59820;55.076;38.766;2022-08-03T14:03:20;12.00;;;5.50;;
71947;SDS011;59820;55.076;38.766;2022-08-03T14:05:48;7.30;;;5.00;;
71947;SDS011;59820;55.076;38.766;2022-08-03T14:08:14;7.35;;;5.20;;
71947;SDS011;59820;55.076;38.766;2022-08-03T14:10:41;7.93;;;4.70;;
71947;SDS011;59820;55.076;38.766;2022-08-03T14:13:12;8.23;;;4.97;;
71947;SDS011;59820;55.076;38.766;2022-08-03T14:15:40;7.85;;;5.18;;
71947;SDS011;59820;55.076;38.766;2022-08-03T14:18:07;7.13;;;4.95;;
71947;SDS011;59820;55.076;38.766;2022-08-03T14:20:34;6.93;;;5.07;;
71947;SDS011;59820;55.076;38.766;2022-08-03T14:23:01;6.27;;;4.60;;
71947;SDS011;59820;55.076;38.766;2022-08-03T14:25:27;7.95;;;5.10;;
71947;SDS011;59820;55.076;38.766;2022-08-03T14:27:55;8.40;;;5.07;;
71947;SDS011;59820;55.076;38.766;2022-08-03T14:30:21;8.15;;;5.90;;
71947;SDS011;59820;55.076;38.766;2022-08-03T14:32:47;8.23;;;5.33;;
71947;SDS011;59820;55.076;38.766;2022-08-03T14:35:13;11.23;;;6.28;;
71947;SDS011;59820;55.076;38.766;2022-08-03T14:37:39;9.48;;;5.32;;
71947;SDS011;59820;55.076;38.766;2022-08-03T14:40:06;10.17;;;6.13;;
71947;SDS011;59820;55.076;38.766;2022-08-03T14:42:32;9.50;;;5.75;;
71947;SDS011;59820;55.076;38.766;2022-08-03T14:44:58;9.60;;;6.82;;
71947;SDS011;59820;55.076;38.766;2022-08-03T14:47:24;9.07;;;5.90;;
71947;SDS011;59820;55.076;38.766;2022-08-03T14:49:50;7.33;;;5.20;;
71947;SDS011;59820;55.076;38.766;2022-08-03T14:52:16;12.50;;;8.13;;
71947;SDS011;59820;55.076;38.766;2022-08-03T14:54:43;11.50;;;5.85;;
71947;SDS011;59820;55.076;38.766;2022-08-03T14:57:09;10.45;;;5.75;;
71947;SDS011;59820;55.076;38.766;2022-08-03T14:59:35;8.30;;;5.43;;
71947;SDS011;59820;55.076;38.766;2022-08-03T15:02:01;10.30;;;5.47;;
71947;SDS011;59820;55.076;38.766;2022-08-03T15:04:27;8.57;;;5.53;;
71947;SDS011;59820;55.076;38.766;2022-08-03T15:06:53;8.47;;;5.50;;
71947;SDS011;59820;55.076;38.766;2022-08-03T15:09:19;8.77;;;5.47;;
71947;SDS011;59820;55.076;38.766;2022-08-03T15:11:45;9.57;;;5.30;;
71947;SDS011;59820;55.076;38.766;2022-08-03T15:14:11;13.13;;;8.00;;
71947;SDS011;59820;55.076;38.766;2022-08-03T15:16:41;10.50;;;5.90;;
71947;SDS011;59820;55.076;38.766;2022-08-03T15:19:07;8.15;;;5.90;;
71947;SDS011;59820;55.076;38.766;2022-08-03T15:21:33;9.27;;;5.90;;
71947;SDS011;59820;55.076;38.766;2022-08-03T15:23:59;9.87;;;5.57;;
71947;SDS011;59820;55.076;38.766;2022-08-03T15:26:25;10.82;;;6.68;;
71947;SDS011;59820;55.076;38.766;2022-08-03T15:28:51;9.27;;;5.05;;
71947;SDS011;59820;55.076;38.766;2022-08-03T15:31:21;11.43;;;5.25;;
71947;SDS011;59820;55.076;38.766;2022-08-03T15:33:47;7.37;;;4.60;;
71947;SDS011;59820;55.076;38.766;2022-08-03T15:36:17;9.93;;;4.75;;
71947;SDS011;59820;55.076;38.766;2022-08-03T15:38:44;14.90;;;5.88;;
71947;SDS011;59820;55.076;38.766;2022-08-03T15:41:11;8.27;;;4.93;;
71947;SDS011;59820;55.076;38.766;2022-08-03T15:43:40;9.95;;;6.22;;
71947;SDS011;59820;55.076;38.766;2022-08-03T15:46:06;10.07;;;5.57;;
71947;SDS011;59820;55.076;38.766;2022-08-03T15:48:32;9.65;;;5.80;;
71947;SDS011;59820;55.076;38.766;2022-08-03T15:50:58;9.68;;;5.78;;
71947;SDS011;59820;55.076;38.766;2022-08-03T15:53:24;11.65;;;6.03;;
71947;SDS011;59820;55.076;38.766;2022-08-03T15:55:51;14.88;;;6.22;;
71947;SDS011;59820;55.076;38.766;2022-08-03T15:58:17;15.03;;;6.07;;
71947;SDS011;59820;55.076;38.766;2022-08-03T16:00:43;13.15;;;5.80;;
71947;SDS011;59820;55.076;38.766;2022-08-03T16:03:09;12.50;;;6.00;;
71947;SDS011;59820;55.076;38.766;2022-08-03T16:05:35;11.73;;;5.50;;
71947;SDS011;59820;55.076;38.766;2022-08-03T16:08:01;12.57;;;6.90;;